sensor_id;sensor_type;location;lat;lon;timestamp;P1;durP1;ratioP1;P2;durP2;ratioP2
53875;SDS011;39789;53.216;5.624;2023-02-28T00:01:15;8.20;;;3.60;;
53875;SDS011;39789;53.216;5.624;2023-02-28T00:38:33;8.52;;;2.70;;
53875;SDS011;39789;53.216;5.624;2023-02-28T00:41:15;10.35;;;3.50;;
53875;SDS011;39789;53.216;5.624;2023-02-28T00:48:29;11.80;;;2.88;;
53875;SDS011;39789;53.216;5.624;2023-02-28T00:55:02;7.93;;;3.20;;
53875;SDS011;39789;53.216;5.624;2023-02-28T01:05:56;9.13;;;2.90;;
53875;SDS011;39789;53.216;5.624;2023-02-28T01:16:52;8.93;;;3.45;;
53875;SDS011;39789;53.216;5.624;2023-02-28T01:24:08;8.48;;;2.72;;
53875;SDS011;39789;53.216;5.624;2023-02-28T01:27:06;8.95;;;3.22;;
53875;SDS011;39789;53.216;5.624;2023-02-28T01:33:45;6.45;;;2.40;;
53875;SDS011;39789;53.216;5.624;2023-02-28T01:52:38;7.60;;;2.30;;
53875;SDS011;39789;53.216;5.624;2023-02-28T02:00:00;5.65;;;2.05;;
53875;SDS011;39789;53.216;5.624;2023-02-28T02:03:52;4.05;;;2.90;;
53875;SDS011;39789;53.216;5.624;2023-02-28T02:07:02;9.82;;;2.25;;
53875;SDS011;39789;53.216;5.624;2023-02-28T02:10:59;9.32;;;2.60;;
53875;SDS011;39789;53.216;5.624;2023-02-28T02:18:23;3.75;;;2.17;;
53875;SDS011;39789;53.216;5.624;2023-02-28T02:34:38;5.68;;;2.75;;
53875;SDS011;39789;53.216;5.624;2023-02-28T02:48:38;6.68;;;3.30;;
53875;SDS011;39789;53.216;5.624;2023-02-28T02:55:37;6.30;;;2.58;;
53875;SDS011;39789;53.216;5.624;2023-02-28T02:59:15;10.55;;;3.72;;
53875;SDS011;39789;53.216;5.624;2023-02-28T03:09:52;8.43;;;2.85;;
53875;SDS011;39789;53.216;5.624;2023-02-28T03:38:23;5.93;;;4.20;;
53875;SDS011;39789;53.216;5.624;2023-02-28T03:41:36;8.48;;;4.35;;
53875;SDS011;39789;53.216;5.624;2023-02-28T03:52:38;6.88;;;4.07;;
53875;SDS011;39789;53.216;5.624;2023-02-28T03:59:47;9.93;;;3.55;;
53875;SDS011;39789;53.216;5.624;2023-02-28T04:03:16;6.00;;;3.30;;
53875;SDS011;39789;53.216;5.624;2023-02-28T04:06:31;7.85;;;2.92;;
53875;SDS011;39789;53.216;5.624;2023-02-28T04:09:56;3.95;;;2.25;;
53875;SDS011;39789;53.216;5.624;2023-02-28T04:16:55;5.22;;;2.65;;
53875;SDS011;39789;53.216;5.624;2023-02-28T04:24:02;6.70;;;2.30;;
53875;SDS011;39789;53.216;5.624;2023-02-28T04:31:08;7.38;;;1.73;;
53875;SDS011;39789;53.216;5.624;2023-02-28T04:34:12;4.82;;;1.77;;
53875;SDS011;39789;53.216;5.624;2023-02-28T04:37:05;5.18;;;1.85;;
53875;SDS011;39789;53.216;5.624;2023-02-28T04:39:43;4.72;;;2.00;;
53875;SDS011;39789;53.216;5.624;2023-02-28T04:42:16;7.78;;;2.20;;
53875;SDS011;39789;53.216;5.624;2023-02-28T04:44:50;6.85;;;2.30;;
53875;SDS011;39789;53.216;5.624;2023-02-28T04:51:33;10.63;;;2.63;;
53875;SDS011;39789;53.216;5.624;2023-02-28T04:58:21;7.30;;;2.30;;
53875;SDS011;39789;53.216;5.624;2023-02-28T05:01:51;8.40;;;2.30;;
53875;SDS011;39789;53.216;5.624;2023-02-28T05:08:14;7.95;;;2.83;;
53875;SDS011;39789;53.216;5.624;2023-02-28T05:21:56;12.43;;;2.15;;
53875;SDS011;39789;53.216;5.624;2023-02-28T05:27:56;7.18;;;2.72;;
53875;SDS011;39789;53.216;5.624;2023-02-28T05:34:50;5.55;;;2.38;;
53875;SDS011;39789;53.216;5.624;2023-02-28T05:37:19;7.32;;;2.75;;
53875;SDS011;39789;53.216;5.624;2023-02-28T05:40:56;6.68;;;1.92;;
53875;SDS011;39789;53.216;5.624;2023-02-28T05:46:39;9.07;;;2.80;;
53875;SDS011;39789;53.216;5.624;2023-02-28T06:03:45;13.55;;;3.00;;
53875;SDS011;39789;53.216;5.624;2023-02-28T06:09:09;6.90;;;2.50;;
53875;SDS011;39789;53.216;5.624;2023-02-28T06:11:39;4.47;;;1.83;;
53875;SDS011;39789;53.216;5.624;2023-02-28T06:17:27;6.75;;;2.42;;
53875;SDS011;39789;53.216;5.624;2023-02-28T06:23:32;14.77;;;2.35;;
53875;SDS011;39789;53.216;5.624;2023-02-28T06:26:02;6.90;;;1.90;;
53875;SDS011;39789;53.216;5.624;2023-02-28T06:28:29;7.25;;;2.20;;
53875;SDS011;39789;53.216;5.624;2023-02-28T06:31:45;13.18;;;2.60;;
53875;SDS011;39789;53.216;5.624;2023-02-28T06:38:33;10.85;;;1.83;;
53875;SDS011;39789;53.216;5.624;2023-02-28T06:41:09;9.15;;;2.42;;
53875;SDS011;39789;53.216;5.624;2023-02-28T06:43:40;6.63;;;2.15;;
53875;SDS011;39789;53.216;5.624;2023-02-28T06:46:07;10.02;;;2.47;;
53875;SDS011;39789;53.216;5.624;2023-02-28T06:48:36;9.18;;;2.10;;
53875;SDS011;39789;53.216;5.624;2023-02-28T06:51:10;8.73;;;2.47;;
53875;SDS011;39789;53.216;5.624;2023-02-28T06:56:23;8.13;;;2.10;;
53875;SDS011;39789;53.216;5.624;2023-02-28T06:59:02;7.93;;;2.65;;
53875;SDS011;39789;53.216;5.624;2023-02-28T07:01:33;10.52;;;4.57;;
53875;SDS011;39789;53.216;5.624;2023-02-28T07:03:58;9.13;;;5.47;;
53875;SDS011;39789;53.216;5.624;2023-02-28T07:06:25;9.88;;;6.03;;
53875;SDS011;39789;53.216;5.624;2023-02-28T07:08:51;10.18;;;6.60;;
53875;SDS011;39789;53.216;5.624;2023-02-28T07:11:18;8.27;;;6.22;;
53875;SDS011;39789;53.216;5.624;2023-02-28T07:13:44;8.20;;;6.13;;
53875;SDS011;39789;53.216;5.624;2023-02-28T07:16:12;7.82;;;6.32;;
53875;SDS011;39789;53.216;5.624;2023-02-28T07:18:39;9.77;;;7.15;;
53875;SDS011;39789;53.216;5.624;2023-02-28T07:21:05;9.85;;;6.88;;
53875;SDS011;39789;53.216;5.624;2023-02-28T07:23:32;10.70;;;7.15;;
53875;SDS011;39789;53.216;5.624;2023-02-28T07:25:58;10.30;;;8.00;;
53875;SDS011;39789;53.216;5.624;2023-02-28T07:28:24;11.70;;;7.82;;
53875;SDS011;39789;53.216;5.624;2023-02-28T07:30:50;11.13;;;8.68;;
53875;SDS011;39789;53.216;5.624;2023-02-28T07:33:16;12.82;;;8.00;;
53875;SDS011;39789;53.216;5.624;2023-02-28T07:35:43;12.43;;;8.45;;
53875;SDS011;39789;53.216;5.624;2023-02-28T07:38:09;10.98;;;8.77;;
53875;SDS011;39789;53.216;5.624;2023-02-28T07:40:35;12.50;;;9.13;;
53875;SDS011;39789;53.216;5.624;2023-02-28T07:43:01;13.25;;;9.75;;
53875;SDS011;39789;53.216;5.624;2023-02-28T07:45:28;12.80;;;9.57;;
53875;SDS011;39789;53.216;5.624;2023-02-28T07:47:54;11.90;;;9.70;;
53875;SDS011;39789;53.216;5.624;2023-02-28T07:50:22;11.80;;;9.65;;
53875;SDS011;39789;53.216;5.624;2023-02-28T07:52:48;15.48;;;10.50;;
53875;SDS011;39789;53.216;5.624;2023-02-28T07:55:14;12.63;;;10.23;;
53875;SDS011;39789;53.216;5.624;2023-02-28T07:57:41;19.42;;;10.45;;
53875;SDS011;39789;53.216;5.624;2023-02-28T08:00:09;12.70;;;10.57;;
53875;SDS011;39789;53.216;5.624;2023-02-28T08:02:35;14.18;;;9.90;;
53875;SDS011;39789;53.216;5.624;2023-02-28T08:05:01;12.27;;;10.13;;
53875;SDS011;39789;53.216;5.624;2023-02-28T08:07:27;12.70;;;9.98;;
53875;SDS011;39789;53.216;5.624;2023-02-28T08:09:53;13.50;;;10.75;;
53875;SDS011;39789;53.216;5.624;2023-02-28T08:12:19;14.23;;;10.57;;
53875;SDS011;39789;53.216;5.624;2023-02-28T08:14:45;15.07;;;11.20;;
53875;SDS011;39789;53.216;5.624;2023-02-28T08:17:10;18.30;;;11.35;;
53875;SDS011;39789;53.216;5.624;2023-02-28T08:19:36;13.98;;;11.55;;
53875;SDS011;39789;53.216;5.624;2023-02-28T08:22:02;15.63;;;12.02;;
53875;SDS011;39789;53.216;5.624;2023-02-28T08:24:28;15.55;;;12.48;;
53875;SDS011;39789;53.216;5.624;2023-02-28T08:26:54;16.60;;;12.57;;
53875;SDS011;39789;53.216;5.624;2023-02-28T08:29:20;14.13;;;11.63;;
53875;SDS011;39789;53.216;5.624;2023-02-28T08:31:47;15.93;;;12.25;;
53875;SDS011;39789;53.216;5.624;2023-02-28T08:34:13;17.65;;;12.02;;
53875;SDS011;39789;53.216;5.624;2023-02-28T08:36:40;16.40;;;12.55;;
53875;SDS011;39789;53.216;5.624;2023-02-28T08:39:07;15.32;;;11.60;;
53875;SDS011;39789;53.216;5.624;2023-02-28T08:41:34;15.00;;;12.40;;
53875;SDS011;39789;53.216;5.624;2023-02-28T08:44:00;16.83;;;11.85;;
53875;SDS011;39789;53.216;5.624;2023-02-28T08:46:26;20.45;;;13.30;;
53875;SDS011;39789;53.216;5.624;2023-02-28T08:48:52;20.00;;;13.90;;
53875;SDS011;39789;53.216;5.624;2023-02-28T08:51:19;16.15;;;13.00;;
53875;SDS011;39789;53.216;5.624;2023-02-28T08:53:55;17.65;;;12.90;;
53875;SDS011;39789;53.216;5.624;2023-02-28T08:56:24;16.25;;;12.10;;
53875;SDS011;39789;53.216;5.624;2023-02-28T08:59:33;17.38;;;12.57;;
53875;SDS011;39789;53.216;5.624;2023-02-28T09:01:59;13.98;;;11.13;;
53875;SDS011;39789;53.216;5.624;2023-02-28T09:04:25;14.75;;;10.32;;
53875;SDS011;39789;53.216;5.624;2023-02-28T09:06:56;15.38;;;11.13;;
53875;SDS011;39789;53.216;5.624;2023-02-28T09:10:38;15.60;;;11.05;;
53875;SDS011;39789;53.216;5.624;2023-02-28T09:13:06;18.05;;;12.77;;
53875;SDS011;39789;53.216;5.624;2023-02-28T09:15:32;19.88;;;12.43;;
53875;SDS011;39789;53.216;5.624;2023-02-28T09:21:49;16.75;;;10.82;;
53875;SDS011;39789;53.216;5.624;2023-02-28T09:24:16;16.50;;;12.60;;
53875;SDS011;39789;53.216;5.624;2023-02-28T09:26:45;16.50;;;12.82;;
53875;SDS011;39789;53.216;5.624;2023-02-28T09:29:11;17.63;;;12.77;;
53875;SDS011;39789;53.216;5.624;2023-02-28T09:31:37;15.75;;;12.38;;
53875;SDS011;39789;53.216;5.624;2023-02-28T09:34:03;18.00;;;13.88;;
53875;SDS011;39789;53.216;5.624;2023-02-28T09:36:35;20.38;;;14.52;;
53875;SDS011;39789;53.216;5.624;2023-02-28T09:39:03;18.67;;;13.02;;
53875;SDS011;39789;53.216;5.624;2023-02-28T09:41:39;18.27;;;13.10;;
53875;SDS011;39789;53.216;5.624;2023-02-28T09:44:26;17.02;;;12.80;;
53875;SDS011;39789;53.216;5.624;2023-02-28T09:47:41;18.25;;;12.20;;
53875;SDS011;39789;53.216;5.624;2023-02-28T09:53:46;15.20;;;10.90;;
53875;SDS011;39789;53.216;5.624;2023-02-28T09:56:39;14.18;;;10.82;;
53875;SDS011;39789;53.216;5.624;2023-02-28T10:09:57;12.77;;;9.38;;
53875;SDS011;39789;53.216;5.624;2023-02-28T10:12:31;12.90;;;9.23;;
53875;SDS011;39789;53.216;5.624;2023-02-28T10:14:58;17.20;;;9.38;;
53875;SDS011;39789;53.216;5.624;2023-02-28T10:17:36;15.40;;;11.50;;
53875;SDS011;39789;53.216;5.624;2023-02-28T10:20:26;12.95;;;9.48;;
53875;SDS011;39789;53.216;5.624;2023-02-28T10:26:35;12.60;;;8.93;;
53875;SDS011;39789;53.216;5.624;2023-02-28T10:29:03;11.60;;;9.35;;
53875;SDS011;39789;53.216;5.624;2023-02-28T10:31:29;13.10;;;8.65;;
53875;SDS011;39789;53.216;5.624;2023-02-28T10:33:58;10.95;;;8.65;;
53875;SDS011;39789;53.216;5.624;2023-02-28T10:36:24;12.65;;;8.25;;
53875;SDS011;39789;53.216;5.624;2023-02-28T10:42:27;10.95;;;8.00;;
53875;SDS011;39789;53.216;5.624;2023-02-28T10:49:04;10.45;;;7.72;;
53875;SDS011;39789;53.216;5.624;2023-02-28T10:51:56;11.23;;;7.72;;
53875;SDS011;39789;53.216;5.624;2023-02-28T10:54:27;10.88;;;7.82;;
53875;SDS011;39789;53.216;5.624;2023-02-28T10:57:24;9.50;;;7.45;;
53875;SDS011;39789;53.216;5.624;2023-02-28T10:59:52;9.02;;;7.15;;
53875;SDS011;39789;53.216;5.624;2023-02-28T11:02:43;9.60;;;6.95;;
53875;SDS011;39789;53.216;5.624;2023-02-28T11:05:22;13.43;;;6.63;;
53875;SDS011;39789;53.216;5.624;2023-02-28T11:08:15;10.07;;;6.80;;
53875;SDS011;39789;53.216;5.624;2023-02-28T11:10:53;8.18;;;7.20;;
53875;SDS011;39789;53.216;5.624;2023-02-28T11:13:36;8.57;;;6.35;;
53875;SDS011;39789;53.216;5.624;2023-02-28T11:16:07;10.32;;;6.68;;
53875;SDS011;39789;53.216;5.624;2023-02-28T11:18:46;8.50;;;6.35;;
53875;SDS011;39789;53.216;5.624;2023-02-28T11:21:21;10.18;;;5.75;;
53875;SDS011;39789;53.216;5.624;2023-02-28T11:23:47;7.30;;;5.30;;
53875;SDS011;39789;53.216;5.624;2023-02-28T11:26:16;9.40;;;5.82;;
53875;SDS011;39789;53.216;5.624;2023-02-28T11:29:11;9.65;;;4.75;;
53875;SDS011;39789;53.216;5.624;2023-02-28T11:31:42;8.20;;;5.38;;
53875;SDS011;39789;53.216;5.624;2023-02-28T11:37:36;7.60;;;5.38;;
53875;SDS011;39789;53.216;5.624;2023-02-28T11:40:16;8.82;;;6.00;;
53875;SDS011;39789;53.216;5.624;2023-02-28T11:43:06;7.13;;;5.40;;
53875;SDS011;39789;53.216;5.624;2023-02-28T11:46:51;10.07;;;4.95;;
53875;SDS011;39789;53.216;5.624;2023-02-28T11:49:37;6.90;;;5.00;;
53875;SDS011;39789;53.216;5.624;2023-02-28T11:52:25;10.07;;;5.30;;
53875;SDS011;39789;53.216;5.624;2023-02-28T11:55:31;6.10;;;4.40;;
53875;SDS011;39789;53.216;5.624;2023-02-28T12:06:57;6.70;;;4.28;;
53875;SDS011;39789;53.216;5.624;2023-02-28T12:09:44;7.60;;;4.28;;
53875;SDS011;39789;53.216;5.624;2023-02-28T12:12:30;6.85;;;4.80;;
53875;SDS011;39789;53.216;5.624;2023-02-28T12:20:46;6.03;;;3.97;;
53875;SDS011;39789;53.216;5.624;2023-02-28T12:23:22;7.22;;;4.30;;
53875;SDS011;39789;53.216;5.624;2023-02-28T12:26:13;6.00;;;3.83;;
53875;SDS011;39789;53.216;5.624;2023-02-28T12:28:41;5.65;;;4.65;;
53875;SDS011;39789;53.216;5.624;2023-02-28T12:31:14;5.40;;;4.10;;
53875;SDS011;39789;53.216;5.624;2023-02-28T12:33:50;8.50;;;3.88;;
53875;SDS011;39789;53.216;5.624;2023-02-28T12:36:19;6.22;;;4.22;;
53875;SDS011;39789;53.216;5.624;2023-02-28T12:39:00;7.75;;;4.85;;
53875;SDS011;39789;53.216;5.624;2023-02-28T12:44:17;6.22;;;4.50;;
53875;SDS011;39789;53.216;5.624;2023-02-28T12:46:49;5.13;;;4.13;;
53875;SDS011;39789;53.216;5.624;2023-02-28T12:49:22;5.43;;;4.18;;
53875;SDS011;39789;53.216;5.624;2023-02-28T12:51:52;7.30;;;4.50;;
53875;SDS011;39789;53.216;5.624;2023-02-28T12:56:45;6.80;;;4.15;;
53875;SDS011;39789;53.216;5.624;2023-02-28T13:05:24;8.75;;;4.22;;
53875;SDS011;39789;53.216;5.624;2023-02-28T13:08:28;6.22;;;4.28;;
53875;SDS011;39789;53.216;5.624;2023-02-28T13:11:24;6.50;;;4.18;;
53875;SDS011;39789;53.216;5.624;2023-02-28T13:14:37;7.20;;;4.78;;
53875;SDS011;39789;53.216;5.624;2023-02-28T13:19:20;6.25;;;4.07;;
53875;SDS011;39789;53.216;5.624;2023-02-28T13:21:48;6.40;;;5.18;;
53875;SDS011;39789;53.216;5.624;2023-02-28T13:27:23;6.25;;;4.88;;
53875;SDS011;39789;53.216;5.624;2023-02-28T13:30:58;6.95;;;4.57;;
53875;SDS011;39789;53.216;5.624;2023-02-28T13:33:21;6.80;;;4.70;;
53875;SDS011;39789;53.216;5.624;2023-02-28T13:39:58;6.00;;;4.30;;
53875;SDS011;39789;53.216;5.624;2023-02-28T13:42:50;6.65;;;4.70;;
53875;SDS011;39789;53.216;5.624;2023-02-28T13:45:27;5.28;;;3.97;;
53875;SDS011;39789;53.216;5.624;2023-02-28T13:48:20;8.25;;;4.35;;
53875;SDS011;39789;53.216;5.624;2023-02-28T13:50:52;5.40;;;4.57;;
53875;SDS011;39789;53.216;5.624;2023-02-28T13:53:37;6.70;;;3.78;;
53875;SDS011;39789;53.216;5.624;2023-02-28T14:03:09;7.38;;;4.78;;
53875;SDS011;39789;53.216;5.624;2023-02-28T14:06:16;7.75;;;4.63;;
53875;SDS011;39789;53.216;5.624;2023-02-28T14:08:59;7.15;;;4.43;;
53875;SDS011;39789;53.216;5.624;2023-02-28T14:13:56;6.93;;;4.72;;
53875;SDS011;39789;53.216;5.624;2023-02-28T14:16:25;6.30;;;4.97;;
53875;SDS011;39789;53.216;5.624;2023-02-28T14:19:12;6.53;;;4.30;;
53875;SDS011;39789;53.216;5.624;2023-02-28T14:21:49;6.47;;;4.47;;
53875;SDS011;39789;53.216;5.624;2023-02-28T14:27:32;5.07;;;4.20;;
53875;SDS011;39789;53.216;5.624;2023-02-28T14:30:37;8.88;;;4.82;;
53875;SDS011;39789;53.216;5.624;2023-02-28T14:36:25;5.63;;;4.30;;
53875;SDS011;39789;53.216;5.624;2023-02-28T14:39:25;7.65;;;4.80;;
53875;SDS011;39789;53.216;5.624;2023-02-28T14:43:18;5.85;;;4.20;;
53875;SDS011;39789;53.216;5.624;2023-02-28T14:49:55;7.20;;;4.80;;
53875;SDS011;39789;53.216;5.624;2023-02-28T14:56:38;7.50;;;5.15;;
53875;SDS011;39789;53.216;5.624;2023-02-28T14:59:23;5.75;;;4.80;;
53875;SDS011;39789;53.216;5.624;2023-02-28T15:02:22;6.50;;;4.07;;
53875;SDS011;39789;53.216;5.624;2023-02-28T15:05:10;6.78;;;4.90;;
53875;SDS011;39789;53.216;5.624;2023-02-28T15:08:06;6.55;;;4.68;;
53875;SDS011;39789;53.216;5.624;2023-02-28T15:10:56;5.05;;;4.32;;
53875;SDS011;39789;53.216;5.624;2023-02-28T15:17:38;5.40;;;4.40;;
53875;SDS011;39789;53.216;5.624;2023-02-28T15:20:04;7.20;;;4.93;;
53875;SDS011;39789;53.216;5.624;2023-02-28T15:22:35;6.53;;;4.50;;
53875;SDS011;39789;53.216;5.624;2023-02-28T15:25:02;6.28;;;4.93;;
53875;SDS011;39789;53.216;5.624;2023-02-28T15:27:31;7.68;;;4.45;;
53875;SDS011;39789;53.216;5.624;2023-02-28T15:29:59;7.00;;;5.00;;
53875;SDS011;39789;53.216;5.624;2023-02-28T15:32:33;6.28;;;4.75;;
53875;SDS011;39789;53.216;5.624;2023-02-28T15:41:37;7.95;;;4.70;;
53875;SDS011;39789;53.216;5.624;2023-02-28T15:44:16;7.43;;;4.72;;
53875;SDS011;39789;53.216;5.624;2023-02-28T15:47:05;6.00;;;4.40;;
53875;SDS011;39789;53.216;5.624;2023-02-28T15:50:03;7.75;;;4.82;;
53875;SDS011;39789;53.216;5.624;2023-02-28T15:52:39;6.45;;;4.80;;
53875;SDS011;39789;53.216;5.624;2023-02-28T15:55:27;8.07;;;5.30;;
53875;SDS011;39789;53.216;5.624;2023-02-28T15:58:03;7.13;;;4.93;;
53875;SDS011;39789;53.216;5.624;2023-02-28T16:00:59;6.65;;;5.15;;
53875;SDS011;39789;53.216;5.624;2023-02-28T16:03:48;7.68;;;6.10;;
53875;SDS011;39789;53.216;5.624;2023-02-28T16:09:31;7.60;;;5.75;;
53875;SDS011;39789;53.216;5.624;2023-02-28T16:12:00;6.65;;;5.68;;
53875;SDS011;39789;53.216;5.624;2023-02-28T16:14:27;8.00;;;5.55;;
53875;SDS011;39789;53.216;5.624;2023-02-28T16:16:57;6.30;;;5.28;;
53875;SDS011;39789;53.216;5.624;2023-02-28T16:19:33;7.10;;;5.90;;
53875;SDS011;39789;53.216;5.624;2023-02-28T16:21:59;9.30;;;5.95;;
53875;SDS011;39789;53.216;5.624;2023-02-28T16:24:26;7.53;;;5.75;;
53875;SDS011;39789;53.216;5.624;2023-02-28T16:26:52;5.95;;;5.03;;
53875;SDS011;39789;53.216;5.624;2023-02-28T16:29:37;8.48;;;5.25;;
53875;SDS011;39789;53.216;5.624;2023-02-28T16:32:05;7.50;;;6.00;;
53875;SDS011;39789;53.216;5.624;2023-02-28T16:34:31;10.25;;;6.07;;
53875;SDS011;39789;53.216;5.624;2023-02-28T16:36:57;10.52;;;6.40;;
53875;SDS011;39789;53.216;5.624;2023-02-28T16:40:17;10.53;;;6.13;;
53875;SDS011;39789;53.216;5.624;2023-02-28T16:42:50;7.43;;;5.30;;
53875;SDS011;39789;53.216;5.624;2023-02-28T16:45:23;8.88;;;6.38;;
53875;SDS011;39789;53.216;5.624;2023-02-28T16:47:50;8.32;;;5.85;;
53875;SDS011;39789;53.216;5.624;2023-02-28T16:50:20;9.30;;;6.50;;
53875;SDS011;39789;53.216;5.624;2023-02-28T16:52:53;9.15;;;6.30;;
53875;SDS011;39789;53.216;5.624;2023-02-28T16:55:19;10.50;;;6.63;;
53875;SDS011;39789;53.216;5.624;2023-02-28T16:57:47;8.40;;;6.25;;
53875;SDS011;39789;53.216;5.624;2023-02-28T17:00:23;7.00;;;6.07;;
53875;SDS011;39789;53.216;5.624;2023-02-28T17:02:49;11.55;;;7.07;;
53875;SDS011;39789;53.216;5.624;2023-02-28T17:05:16;8.63;;;6.47;;
53875;SDS011;39789;53.216;5.624;2023-02-28T17:07:47;9.55;;;6.85;;
53875;SDS011;39789;53.216;5.624;2023-02-28T17:10:23;13.77;;;7.60;;
53875;SDS011;39789;53.216;5.624;2023-02-28T17:12:52;9.93;;;7.57;;
53875;SDS011;39789;53.216;5.624;2023-02-28T17:15:19;12.27;;;7.40;;
53875;SDS011;39789;53.216;5.624;2023-02-28T17:17:47;11.55;;;8.75;;
53875;SDS011;39789;53.216;5.624;2023-02-28T17:20:16;9.90;;;7.55;;
53875;SDS011;39789;53.216;5.624;2023-02-28T17:22:50;11.23;;;7.50;;
53875;SDS011;39789;53.216;5.624;2023-02-28T17:25:16;12.95;;;7.07;;
53875;SDS011;39789;53.216;5.624;2023-02-28T17:27:44;13.07;;;7.63;;
53875;SDS011;39789;53.216;5.624;2023-02-28T17:30:19;9.60;;;7.15;;
53875;SDS011;39789;53.216;5.624;2023-02-28T17:32:53;9.00;;;6.65;;
53875;SDS011;39789;53.216;5.624;2023-02-28T17:35:20;9.88;;;7.45;;
53875;SDS011;39789;53.216;5.624;2023-02-28T17:37:47;11.55;;;7.47;;
53875;SDS011;39789;53.216;5.624;2023-02-28T17:40:14;12.73;;;6.97;;
53875;SDS011;39789;53.216;5.624;2023-02-28T17:42:42;8.85;;;6.75;;
53875;SDS011;39789;53.216;5.624;2023-02-28T17:45:10;11.23;;;7.50;;
53875;SDS011;39789;53.216;5.624;2023-02-28T17:47:36;8.70;;;7.05;;
53875;SDS011;39789;53.216;5.624;2023-02-28T17:50:03;10.65;;;7.75;;
53875;SDS011;39789;53.216;5.624;2023-02-28T17:52:29;11.98;;;8.18;;
53875;SDS011;39789;53.216;5.624;2023-02-28T17:55:02;10.60;;;8.38;;
53875;SDS011;39789;53.216;5.624;2023-02-28T17:57:29;12.65;;;8.35;;
53875;SDS011;39789;53.216;5.624;2023-02-28T17:59:56;11.68;;;8.60;;
53875;SDS011;39789;53.216;5.624;2023-02-28T18:02:22;16.73;;;9.32;;
53875;SDS011;39789;53.216;5.624;2023-02-28T18:04:48;13.20;;;8.77;;
53875;SDS011;39789;53.216;5.624;2023-02-28T18:07:17;12.52;;;9.25;;
53875;SDS011;39789;53.216;5.624;2023-02-28T18:09:45;13.63;;;9.82;;
53875;SDS011;39789;53.216;5.624;2023-02-28T18:12:14;12.77;;;9.70;;
53875;SDS011;39789;53.216;5.624;2023-02-28T18:14:40;11.85;;;8.77;;
53875;SDS011;39789;53.216;5.624;2023-02-28T18:17:08;12.00;;;9.43;;
53875;SDS011;39789;53.216;5.624;2023-02-28T18:19:37;13.02;;;9.73;;
53875;SDS011;39789;53.216;5.624;2023-02-28T18:22:03;15.05;;;9.73;;
53875;SDS011;39789;53.216;5.624;2023-02-28T18:24:33;17.45;;;10.60;;
53875;SDS011;39789;53.216;5.624;2023-02-28T18:27:01;12.02;;;9.63;;
53875;SDS011;39789;53.216;5.624;2023-02-28T18:29:29;13.50;;;10.73;;
53875;SDS011;39789;53.216;5.624;2023-02-28T18:31:56;13.05;;;9.73;;
53875;SDS011;39789;53.216;5.624;2023-02-28T18:34:26;14.18;;;10.27;;
53875;SDS011;39789;53.216;5.624;2023-02-28T18:36:52;14.18;;;10.63;;
53875;SDS011;39789;53.216;5.624;2023-02-28T18:39:18;15.45;;;10.27;;
53875;SDS011;39789;53.216;5.624;2023-02-28T18:41:44;11.95;;;9.32;;
53875;SDS011;39789;53.216;5.624;2023-02-28T18:44:18;14.35;;;9.93;;
53875;SDS011;39789;53.216;5.624;2023-02-28T18:46:45;12.52;;;9.75;;
53875;SDS011;39789;53.216;5.624;2023-02-28T18:49:11;13.30;;;9.98;;
53875;SDS011;39789;53.216;5.624;2023-02-28T18:51:37;12.93;;;9.38;;
53875;SDS011;39789;53.216;5.624;2023-02-28T18:54:04;14.52;;;9.77;;
53875;SDS011;39789;53.216;5.624;2023-02-28T18:56:30;15.82;;;10.68;;
53875;SDS011;39789;53.216;5.624;2023-02-28T18:58:56;13.73;;;10.27;;
53875;SDS011;39789;53.216;5.624;2023-02-28T19:01:25;14.27;;;10.70;;
53875;SDS011;39789;53.216;5.624;2023-02-28T19:03:55;14.18;;;10.60;;
53875;SDS011;39789;53.216;5.624;2023-02-28T19:06:21;17.15;;;10.25;;
53875;SDS011;39789;53.216;5.624;2023-02-28T19:08:51;16.08;;;10.63;;
53875;SDS011;39789;53.216;5.624;2023-02-28T19:11:20;15.20;;;10.98;;
53875;SDS011;39789;53.216;5.624;2023-02-28T19:13:46;14.70;;;10.52;;
53875;SDS011;39789;53.216;5.624;2023-02-28T19:16:12;16.48;;;11.15;;
53875;SDS011;39789;53.216;5.624;2023-02-28T19:18:41;13.02;;;10.18;;
53875;SDS011;39789;53.216;5.624;2023-02-28T19:21:08;19.15;;;11.93;;
53875;SDS011;39789;53.216;5.624;2023-02-28T19:23:36;18.55;;;12.18;;
53875;SDS011;39789;53.216;5.624;2023-02-28T19:26:06;14.20;;;11.27;;
53875;SDS011;39789;53.216;5.624;2023-02-28T19:28:37;17.25;;;11.43;;
53875;SDS011;39789;53.216;5.624;2023-02-28T19:31:03;17.13;;;12.27;;
53875;SDS011;39789;53.216;5.624;2023-02-28T19:33:29;14.55;;;10.93;;
53875;SDS011;39789;53.216;5.624;2023-02-28T19:35:57;17.50;;;11.15;;
53875;SDS011;39789;53.216;5.624;2023-02-28T19:38:23;15.98;;;11.35;;
53875;SDS011;39789;53.216;5.624;2023-02-28T19:40:49;18.58;;;11.82;;
53875;SDS011;39789;53.216;5.624;2023-02-28T19:43:23;16.63;;;10.98;;
53875;SDS011;39789;53.216;5.624;2023-02-28T19:45:49;17.88;;;11.38;;
53875;SDS011;39789;53.216;5.624;2023-02-28T19:48:15;16.30;;;11.73;;
53875;SDS011;39789;53.216;5.624;2023-02-28T19:50:41;12.98;;;9.75;;
53875;SDS011;39789;53.216;5.624;2023-02-28T19:53:07;15.27;;;9.27;;
53875;SDS011;39789;53.216;5.624;2023-02-28T19:55:34;14.23;;;9.63;;
53875;SDS011;39789;53.216;5.624;2023-02-28T19:58:01;16.55;;;9.75;;
53875;SDS011;39789;53.216;5.624;2023-02-28T20:00:27;16.02;;;10.70;;
53875;SDS011;39789;53.216;5.624;2023-02-28T20:02:53;16.85;;;11.40;;
53875;SDS011;39789;53.216;5.624;2023-02-28T20:05:19;20.38;;;11.93;;
53875;SDS011;39789;53.216;5.624;2023-02-28T20:07:45;16.33;;;11.20;;
53875;SDS011;39789;53.216;5.624;2023-02-28T20:10:12;13.80;;;10.57;;
53875;SDS011;39789;53.216;5.624;2023-02-28T20:12:43;19.73;;;11.65;;
53875;SDS011;39789;53.216;5.624;2023-02-28T20:15:09;17.65;;;12.00;;
53875;SDS011;39789;53.216;5.624;2023-02-28T20:18:00;15.00;;;11.57;;
53875;SDS011;39789;53.216;5.624;2023-02-28T20:25:03;19.92;;;12.75;;
53875;SDS011;39789;53.216;5.624;2023-02-28T20:28:04;16.30;;;12.40;;
53875;SDS011;39789;53.216;5.624;2023-02-28T20:30:38;19.10;;;12.48;;
53875;SDS011;39789;53.216;5.624;2023-02-28T20:33:07;22.02;;;13.57;;
53875;SDS011;39789;53.216;5.624;2023-02-28T20:35:33;20.13;;;13.23;;
53875;SDS011;39789;53.216;5.624;2023-02-28T20:38:00;20.40;;;14.40;;
53875;SDS011;39789;53.216;5.624;2023-02-28T20:40:31;19.33;;;14.30;;
53875;SDS011;39789;53.216;5.624;2023-02-28T20:42:58;24.48;;;15.95;;
53875;SDS011;39789;53.216;5.624;2023-02-28T20:46:27;21.45;;;14.98;;
53875;SDS011;39789;53.216;5.624;2023-02-28T20:49:05;19.33;;;13.45;;
53875;SDS011;39789;53.216;5.624;2023-02-28T21:08:20;20.13;;;13.30;;
53875;SDS011;39789;53.216;5.624;2023-02-28T21:11:09;18.27;;;14.07;;
53875;SDS011;39789;53.216;5.624;2023-02-28T21:13:57;22.60;;;14.88;;
53875;SDS011;39789;53.216;5.624;2023-02-28T21:16:48;20.70;;;14.30;;
53875;SDS011;39789;53.216;5.624;2023-02-28T21:24:11;25.58;;;16.67;;
53875;SDS011;39789;53.216;5.624;2023-02-28T21:26:39;26.08;;;16.75;;
53875;SDS011;39789;53.216;5.624;2023-02-28T21:29:13;23.08;;;15.52;;
53875;SDS011;39789;53.216;5.624;2023-02-28T21:32:13;24.23;;;16.40;;
53875;SDS011;39789;53.216;5.624;2023-02-28T21:35:12;25.52;;;17.05;;
53875;SDS011;39789;53.216;5.624;2023-02-28T21:38:45;25.40;;;16.17;;
53875;SDS011;39789;53.216;5.624;2023-02-28T21:42:12;23.35;;;16.83;;
53875;SDS011;39789;53.216;5.624;2023-02-28T21:48:24;27.13;;;18.55;;
53875;SDS011;39789;53.216;5.624;2023-02-28T21:51:11;24.10;;;17.05;;
53875;SDS011;39789;53.216;5.624;2023-02-28T21:53:41;26.73;;;17.27;;
53875;SDS011;39789;53.216;5.624;2023-02-28T21:56:14;25.80;;;17.60;;